sensor_id;sensor_type;location;lat;lon;timestamp;P1;durP1;ratioP1;P2;durP2;ratioP2
211;SDS011;16228;48.800;9.002;2023-06-22T00:02:21;12.57;;;11.23;;
211;SDS011;16228;48.800;9.002;2023-06-22T00:04:48;13.03;;;11.77;;
211;SDS011;16228;48.800;9.002;2023-06-22T00:07:15;12.57;;;10.73;;
211;SDS011;16228;48.800;9.002;2023-06-22T00:09:43;9.87;;;8.97;;
211;SDS011;16228;48.800;9.002;2023-06-22T00:12:10;12.60;;;11.47;;
211;SDS011;16228;48.800;9.002;2023-06-22T00:14:38;11.57;;;10.47;;
211;SDS011;16228;48.800;9.002;2023-06-22T00:17:05;13.53;;;12.20;;
211;SDS011;16228;48.800;9.002;2023-06-22T00:19:32;13.20;;;11.90;;
211;SDS011;16228;48.800;9.002;2023-06-22T00:22:00;13.00;;;11.70;;
211;SDS011;16228;48.800;9.002;2023-06-22T00:24:28;13.53;;;11.87;;
211;SDS011;16228;48.800;9.002;2023-06-22T00:26:57;11.40;;;10.10;;
211;SDS011;16228;48.800;9.002;2023-06-22T00:29:24;14.47;;;11.23;;
211;SDS011;16228;48.800;9.002;2023-06-22T00:31:51;11.33;;;10.03;;
211;SDS011;16228;48.800;9.002;2023-06-22T00:34:18;11.57;;;10.47;;
211;SDS011;16228;48.800;9.002;2023-06-22T00:36:45;14.73;;;13.30;;
211;SDS011;16228;48.800;9.002;2023-06-22T00:39:13;14.13;;;12.00;;
211;SDS011;16228;48.800;9.002;2023-06-22T00:41:40;17.73;;;13.80;;
211;SDS011;16228;48.800;9.002;2023-06-22T00:44:08;13.50;;;12.30;;
211;SDS011;16228;48.800;9.002;2023-06-22T00:46:36;16.97;;;15.17;;
211;SDS011;16228;48.800;9.002;2023-06-22T00:49:03;11.83;;;10.67;;
211;SDS011;16228;48.800;9.002;2023-06-22T00:51:31;12.27;;;11.07;;
211;SDS011;16228;48.800;9.002;2023-06-22T00:53:58;18.77;;;13.13;;
211;SDS011;16228;48.800;9.002;2023-06-22T00:56:25;12.23;;;11.07;;
211;SDS011;16228;48.800;9.002;2023-06-22T00:58:55;15.80;;;14.27;;
211;SDS011;16228;48.800;9.002;2023-06-22T01:01:24;11.43;;;10.33;;
211;SDS011;16228;48.800;9.002;2023-06-22T01:03:52;16.97;;;15.30;;
211;SDS011;16228;48.800;9.002;2023-06-22T01:06:23;12.77;;;11.67;;
211;SDS011;16228;48.800;9.002;2023-06-22T01:09:00;14.73;;;13.33;;
211;SDS011;16228;48.800;9.002;2023-06-22T01:11:35;15.53;;;13.97;;
211;SDS011;16228;48.800;9.002;2023-06-22T01:14:10;13.07;;;11.77;;
211;SDS011;16228;48.800;9.002;2023-06-22T01:16:43;12.53;;;11.43;;
211;SDS011;16228;48.800;9.002;2023-06-22T01:19:16;12.63;;;11.43;;
211;SDS011;16228;48.800;9.002;2023-06-22T01:21:57;12.83;;;11.80;;
211;SDS011;16228;48.800;9.002;2023-06-22T01:24:27;12.80;;;11.70;;
211;SDS011;16228;48.800;9.002;2023-06-22T01:27:04;13.50;;;12.30;;
211;SDS011;16228;48.800;9.002;2023-06-22T01:29:40;13.17;;;11.87;;
211;SDS011;16228;48.800;9.002;2023-06-22T01:32:09;15.37;;;13.03;;
211;SDS011;16228;48.800;9.002;2023-06-22T01:34:38;14.67;;;13.27;;
211;SDS011;16228;48.800;9.002;2023-06-22T01:37:06;15.57;;;14.07;;
211;SDS011;16228;48.800;9.002;2023-06-22T01:39:34;13.33;;;11.97;;
211;SDS011;16228;48.800;9.002;2023-06-22T01:42:02;13.27;;;11.97;;
211;SDS011;16228;48.800;9.002;2023-06-22T01:44:31;12.57;;;11.47;;
211;SDS011;16228;48.800;9.002;2023-06-22T01:47:01;12.27;;;11.03;;
211;SDS011;16228;48.800;9.002;2023-06-22T01:49:28;13.13;;;11.73;;
211;SDS011;16228;48.800;9.002;2023-06-22T01:51:56;12.60;;;11.50;;
211;SDS011;16228;48.800;9.002;2023-06-22T01:54:23;14.20;;;12.90;;
211;SDS011;16228;48.800;9.002;2023-06-22T01:56:50;15.50;;;13.90;;
211;SDS011;16228;48.800;9.002;2023-06-22T01:59:20;11.73;;;10.60;;
211;SDS011;16228;48.800;9.002;2023-06-22T02:01:53;13.37;;;12.00;;
211;SDS011;16228;48.800;9.002;2023-06-22T02:04:26;11.33;;;10.13;;
211;SDS011;16228;48.800;9.002;2023-06-22T02:06:56;16.23;;;14.67;;
211;SDS011;16228;48.800;9.002;2023-06-22T02:09:26;15.47;;;13.87;;
211;SDS011;16228;48.800;9.002;2023-06-22T02:11:56;13.70;;;12.37;;
211;SDS011;16228;48.800;9.002;2023-06-22T02:14:26;13.07;;;11.67;;
211;SDS011;16228;48.800;9.002;2023-06-22T02:16:54;12.07;;;10.90;;
211;SDS011;16228;48.800;9.002;2023-06-22T02:19:26;14.37;;;12.67;;
211;SDS011;16228;48.800;9.002;2023-06-22T02:21:58;15.93;;;14.43;;
211;SDS011;16228;48.800;9.002;2023-06-22T02:24:25;17.47;;;15.30;;
211;SDS011;16228;48.800;9.002;2023-06-22T02:26:52;18.53;;;16.53;;
211;SDS011;16228;48.800;9.002;2023-06-22T02:29:19;15.00;;;13.53;;
211;SDS011;16228;48.800;9.002;2023-06-22T02:31:46;15.63;;;12.50;;
211;SDS011;16228;48.800;9.002;2023-06-22T02:34:14;15.07;;;12.37;;
211;SDS011;16228;48.800;9.002;2023-06-22T02:36:44;14.03;;;12.63;;
211;SDS011;16228;48.800;9.002;2023-06-22T02:39:16;15.50;;;13.90;;
211;SDS011;16228;48.800;9.002;2023-06-22T02:41:45;13.23;;;11.83;;
211;SDS011;16228;48.800;9.002;2023-06-22T02:44:12;20.20;;;14.20;;
211;SDS011;16228;48.800;9.002;2023-06-22T02:46:39;13.77;;;12.20;;
211;SDS011;16228;48.800;9.002;2023-06-22T02:49:06;17.33;;;15.43;;
211;SDS011;16228;48.800;9.002;2023-06-22T02:51:34;20.83;;;17.50;;
211;SDS011;16228;48.800;9.002;2023-06-22T02:54:02;14.03;;;12.63;;
211;SDS011;16228;48.800;9.002;2023-06-22T02:56:30;16.20;;;12.50;;
211;SDS011;16228;48.800;9.002;2023-06-22T02:58:57;13.63;;;12.40;;
211;SDS011;16228;48.800;9.002;2023-06-22T03:01:26;15.30;;;12.47;;
211;SDS011;16228;48.800;9.002;2023-06-22T03:03:55;16.27;;;13.73;;
211;SDS011;16228;48.800;9.002;2023-06-22T03:06:22;16.00;;;13.80;;
211;SDS011;16228;48.800;9.002;2023-06-22T03:08:57;15.20;;;13.63;;
211;SDS011;16228;48.800;9.002;2023-06-22T03:11:27;15.63;;;12.60;;
211;SDS011;16228;48.800;9.002;2023-06-22T03:13:54;15.77;;;14.30;;
211;SDS011;16228;48.800;9.002;2023-06-22T03:16:21;12.73;;;11.43;;
211;SDS011;16228;48.800;9.002;2023-06-22T03:18:48;16.13;;;14.53;;
211;SDS011;16228;48.800;9.002;2023-06-22T03:21:15;16.13;;;14.50;;
211;SDS011;16228;48.800;9.002;2023-06-22T03:23:43;21.40;;;16.50;;
211;SDS011;16228;48.800;9.002;2023-06-22T03:26:10;15.00;;;11.47;;
211;SDS011;16228;48.800;9.002;2023-06-22T03:28:38;16.70;;;14.93;;
211;SDS011;16228;48.800;9.002;2023-06-22T03:31:05;15.10;;;13.60;;
211;SDS011;16228;48.800;9.002;2023-06-22T03:33:33;20.50;;;18.40;;
211;SDS011;16228;48.800;9.002;2023-06-22T03:36:00;15.80;;;14.20;;
211;SDS011;16228;48.800;9.002;2023-06-22T03:38:27;16.13;;;14.53;;
211;SDS011;16228;48.800;9.002;2023-06-22T03:40:54;14.93;;;13.27;;
211;SDS011;16228;48.800;9.002;2023-06-22T03:43:22;19.27;;;17.27;;
211;SDS011;16228;48.800;9.002;2023-06-22T03:45:51;19.63;;;17.67;;
211;SDS011;16228;48.800;9.002;2023-06-22T03:48:18;16.87;;;15.17;;
211;SDS011;16228;48.800;9.002;2023-06-22T03:50:45;17.50;;;15.70;;
211;SDS011;16228;48.800;9.002;2023-06-22T03:53:12;20.17;;;18.07;;
211;SDS011;16228;48.800;9.002;2023-06-22T03:55:42;19.87;;;17.93;;
211;SDS011;16228;48.800;9.002;2023-06-22T03:58:15;14.87;;;13.53;;
211;SDS011;16228;48.800;9.002;2023-06-22T04:00:44;18.60;;;16.87;;
211;SDS011;16228;48.800;9.002;2023-06-22T04:03:13;20.17;;;18.10;;
211;SDS011;16228;48.800;9.002;2023-06-22T04:05:41;14.20;;;12.90;;
211;SDS011;16228;48.800;9.002;2023-06-22T04:08:09;17.57;;;15.80;;
211;SDS011;16228;48.800;9.002;2023-06-22T04:10:36;18.60;;;16.70;;
211;SDS011;16228;48.800;9.002;2023-06-22T04:13:03;20.37;;;18.30;;
211;SDS011;16228;48.800;9.002;2023-06-22T04:15:30;14.23;;;12.70;;
211;SDS011;16228;48.800;9.002;2023-06-22T04:17:57;16.03;;;13.77;;
211;SDS011;16228;48.800;9.002;2023-06-22T04:20:26;18.03;;;16.13;;
211;SDS011;16228;48.800;9.002;2023-06-22T04:22:53;13.43;;;12.03;;
211;SDS011;16228;48.800;9.002;2023-06-22T04:25:21;18.37;;;16.43;;
211;SDS011;16228;48.800;9.002;2023-06-22T04:27:49;17.77;;;15.87;;
211;SDS011;16228;48.800;9.002;2023-06-22T04:30:16;15.67;;;14.27;;
211;SDS011;16228;48.800;9.002;2023-06-22T04:32:43;14.73;;;13.43;;
211;SDS011;16228;48.800;9.002;2023-06-22T04:35:21;15.07;;;13.20;;
211;SDS011;16228;48.800;9.002;2023-06-22T04:37:50;15.87;;;12.50;;
211;SDS011;16228;48.800;9.002;2023-06-22T04:40:20;16.13;;;14.43;;
211;SDS011;16228;48.800;9.002;2023-06-22T04:42:48;15.37;;;13.87;;
211;SDS011;16228;48.800;9.002;2023-06-22T04:45:19;19.53;;;17.57;;
211;SDS011;16228;48.800;9.002;2023-06-22T04:47:47;14.53;;;13.10;;
211;SDS011;16228;48.800;9.002;2023-06-22T04:50:14;14.77;;;13.27;;
211;SDS011;16228;48.800;9.002;2023-06-22T04:52:42;15.17;;;13.67;;
211;SDS011;16228;48.800;9.002;2023-06-22T04:55:12;14.97;;;13.47;;
211;SDS011;16228;48.800;9.002;2023-06-22T04:57:43;15.43;;;14.03;;
211;SDS011;16228;48.800;9.002;2023-06-22T05:00:14;15.77;;;13.70;;
211;SDS011;16228;48.800;9.002;2023-06-22T05:02:42;16.13;;;14.70;;
211;SDS011;16228;48.800;9.002;2023-06-22T05:05:11;14.80;;;13.40;;
211;SDS011;16228;48.800;9.002;2023-06-22T05:07:40;18.93;;;14.43;;
211;SDS011;16228;48.800;9.002;2023-06-22T05:10:13;13.90;;;12.53;;
211;SDS011;16228;48.800;9.002;2023-06-22T05:12:41;14.30;;;12.87;;
211;SDS011;16228;48.800;9.002;2023-06-22T05:15:08;13.40;;;12.10;;
211;SDS011;16228;48.800;9.002;2023-06-22T05:17:36;12.80;;;10.63;;
211;SDS011;16228;48.800;9.002;2023-06-22T05:20:08;10.43;;;9.43;;
211;SDS011;16228;48.800;9.002;2023-06-22T05:22:36;10.77;;;9.13;;
211;SDS011;16228;48.800;9.002;2023-06-22T05:25:04;11.00;;;10.03;;
211;SDS011;16228;48.800;9.002;2023-06-22T05:27:34;9.83;;;8.83;;
211;SDS011;16228;48.800;9.002;2023-06-22T05:30:05;12.73;;;10.03;;
211;SDS011;16228;48.800;9.002;2023-06-22T05:32:33;12.03;;;10.93;;
211;SDS011;16228;48.800;9.002;2023-06-22T05:35:00;13.23;;;11.60;;
211;SDS011;16228;48.800;9.002;2023-06-22T05:37:28;13.17;;;10.40;;
211;SDS011;16228;48.800;9.002;2023-06-22T05:39:55;11.53;;;10.33;;
211;SDS011;16228;48.800;9.002;2023-06-22T05:42:23;15.97;;;11.13;;
211;SDS011;16228;48.800;9.002;2023-06-22T05:44:52;10.80;;;9.70;;
211;SDS011;16228;48.800;9.002;2023-06-22T05:47:20;12.07;;;9.73;;
211;SDS011;16228;48.800;9.002;2023-06-22T05:49:48;11.10;;;9.97;;
211;SDS011;16228;48.800;9.002;2023-06-22T05:52:15;11.53;;;8.83;;
211;SDS011;16228;48.800;9.002;2023-06-22T05:54:42;10.63;;;9.50;;
211;SDS011;16228;48.800;9.002;2023-06-22T05:57:09;9.57;;;8.67;;
211;SDS011;16228;48.800;9.002;2023-06-22T05:59:36;9.90;;;8.57;;
211;SDS011;16228;48.800;9.002;2023-06-22T06:02:05;7.87;;;6.80;;
211;SDS011;16228;48.800;9.002;2023-06-22T06:04:32;9.93;;;8.57;;
211;SDS011;16228;48.800;9.002;2023-06-22T06:06:59;9.40;;;8.40;;
211;SDS011;16228;48.800;9.002;2023-06-22T06:09:27;8.43;;;7.57;;
211;SDS011;16228;48.800;9.002;2023-06-22T06:11:54;8.60;;;7.90;;
211;SDS011;16228;48.800;9.002;2023-06-22T06:14:21;9.17;;;7.87;;
211;SDS011;16228;48.800;9.002;2023-06-22T06:16:48;8.03;;;7.23;;
211;SDS011;16228;48.800;9.002;2023-06-22T06:19:17;8.57;;;7.63;;
211;SDS011;16228;48.800;9.002;2023-06-22T06:21:44;7.33;;;6.63;;
211;SDS011;16228;48.800;9.002;2023-06-22T06:24:12;9.93;;;6.80;;
211;SDS011;16228;48.800;9.002;2023-06-22T06:26:39;7.63;;;6.57;;
211;SDS011;16228;48.800;9.002;2023-06-22T06:29:06;7.47;;;6.50;;
211;SDS011;16228;48.800;9.002;2023-06-22T06:31:34;7.23;;;6.27;;
211;SDS011;16228;48.800;9.002;2023-06-22T06:34:01;9.47;;;7.47;;
211;SDS011;16228;48.800;9.002;2023-06-22T06:36:30;7.13;;;6.20;;
211;SDS011;16228;48.800;9.002;2023-06-22T06:38:57;7.33;;;6.63;;
211;SDS011;16228;48.800;9.002;2023-06-22T06:41:24;9.20;;;7.83;;
211;SDS011;16228;48.800;9.002;2023-06-22T06:43:51;8.10;;;7.30;;
211;SDS011;16228;48.800;9.002;2023-06-22T06:46:19;7.90;;;6.90;;
211;SDS011;16228;48.800;9.002;2023-06-22T06:48:49;7.53;;;6.30;;
211;SDS011;16228;48.800;9.002;2023-06-22T06:51:16;6.70;;;6.10;;
211;SDS011;16228;48.800;9.002;2023-06-22T06:53:45;9.07;;;6.20;;
211;SDS011;16228;48.800;9.002;2023-06-22T06:56:12;6.37;;;5.73;;
211;SDS011;16228;48.800;9.002;2023-06-22T06:58:40;5.67;;;4.90;;
211;SDS011;16228;48.800;9.002;2023-06-22T07:01:10;5.50;;;4.60;;
211;SDS011;16228;48.800;9.002;2023-06-22T07:03:37;8.67;;;5.40;;
211;SDS011;16228;48.800;9.002;2023-06-22T07:06:04;5.40;;;4.88;;
211;SDS011;16228;48.800;9.002;2023-06-22T07:08:32;5.63;;;5.07;;
211;SDS011;16228;48.800;9.002;2023-06-22T07:11:01;5.93;;;5.15;;
211;SDS011;16228;48.800;9.002;2023-06-22T07:13:28;5.28;;;4.65;;
211;SDS011;16228;48.800;9.002;2023-06-22T07:15:56;4.70;;;4.20;;
211;SDS011;16228;48.800;9.002;2023-06-22T07:18:23;5.72;;;4.68;;
211;SDS011;16228;48.800;9.002;2023-06-22T07:20:51;6.75;;;5.13;;
211;SDS011;16228;48.800;9.002;2023-06-22T07:23:18;6.07;;;5.10;;
211;SDS011;16228;48.800;9.002;2023-06-22T07:25:46;6.43;;;5.82;;
211;SDS011;16228;48.800;9.002;2023-06-22T07:28:14;5.80;;;5.20;;
211;SDS011;16228;48.800;9.002;2023-06-22T07:30:41;7.82;;;5.10;;
211;SDS011;16228;48.800;9.002;2023-06-22T07:33:08;7.75;;;4.90;;
211;SDS011;16228;48.800;9.002;2023-06-22T07:35:36;6.50;;;5.32;;
211;SDS011;16228;48.800;9.002;2023-06-22T07:38:03;5.35;;;4.85;;
211;SDS011;16228;48.800;9.002;2023-06-22T07:40:30;8.32;;;4.32;;
211;SDS011;16228;48.800;9.002;2023-06-22T07:42:57;7.03;;;5.03;;
211;SDS011;16228;48.800;9.002;2023-06-22T07:45:26;7.15;;;4.57;;
211;SDS011;16228;48.800;9.002;2023-06-22T07:47:53;7.90;;;4.93;;
211;SDS011;16228;48.800;9.002;2023-06-22T07:50:20;6.88;;;5.43;;
211;SDS011;16228;48.800;9.002;2023-06-22T07:52:47;5.80;;;5.20;;
211;SDS011;16228;48.800;9.002;2023-06-22T07:55:14;4.82;;;4.43;;
211;SDS011;16228;48.800;9.002;2023-06-22T07:57:42;6.88;;;4.53;;
211;SDS011;16228;48.800;9.002;2023-06-22T08:00:09;7.32;;;5.00;;
211;SDS011;16228;48.800;9.002;2023-06-22T08:02:41;5.38;;;4.65;;
211;SDS011;16228;48.800;9.002;2023-06-22T08:05:10;4.60;;;4.05;;
211;SDS011;16228;48.800;9.002;2023-06-22T08:07:38;6.53;;;4.60;;
211;SDS011;16228;48.800;9.002;2023-06-22T08:10:09;7.15;;;4.72;;
211;SDS011;16228;48.800;9.002;2023-06-22T08:12:37;5.32;;;4.65;;
211;SDS011;16228;48.800;9.002;2023-06-22T08:15:05;7.45;;;5.07;;
211;SDS011;16228;48.800;9.002;2023-06-22T08:17:34;8.00;;;5.10;;
211;SDS011;16228;48.800;9.002;2023-06-22T08:20:04;6.43;;;4.70;;
211;SDS011;16228;48.800;9.002;2023-06-22T08:22:36;4.18;;;3.72;;
211;SDS011;16228;48.800;9.002;2023-06-22T08:25:04;4.78;;;3.88;;
211;SDS011;16228;48.800;9.002;2023-06-22T08:27:32;5.18;;;3.90;;
211;SDS011;16228;48.800;9.002;2023-06-22T08:30:00;5.82;;;4.45;;
211;SDS011;16228;48.800;9.002;2023-06-22T08:32:28;5.30;;;4.80;;
211;SDS011;16228;48.800;9.002;2023-06-22T08:34:56;6.15;;;4.45;;
211;SDS011;16228;48.800;9.002;2023-06-22T08:37:25;7.47;;;4.57;;
211;SDS011;16228;48.800;9.002;2023-06-22T08:39:55;10.07;;;4.50;;
211;SDS011;16228;48.800;9.002;2023-06-22T08:42:23;6.63;;;5.33;;
211;SDS011;16228;48.800;9.002;2023-06-22T08:44:50;9.10;;;4.93;;
211;SDS011;16228;48.800;9.002;2023-06-22T08:47:19;7.17;;;5.00;;
211;SDS011;16228;48.800;9.002;2023-06-22T08:49:46;8.37;;;4.60;;
211;SDS011;16228;48.800;9.002;2023-06-22T08:52:13;6.20;;;4.40;;
211;SDS011;16228;48.800;9.002;2023-06-22T08:54:42;6.23;;;4.50;;
211;SDS011;16228;48.800;9.002;2023-06-22T08:57:09;7.50;;;4.50;;
211;SDS011;16228;48.800;9.002;2023-06-22T08:59:36;11.03;;;4.80;;
211;SDS011;16228;48.800;9.002;2023-06-22T09:02:05;8.67;;;5.03;;
211;SDS011;16228;48.800;9.002;2023-06-22T09:04:32;10.55;;;5.18;;
211;SDS011;16228;48.800;9.002;2023-06-22T09:07:00;9.50;;;4.63;;
211;SDS011;16228;48.800;9.002;2023-06-22T09:09:27;4.97;;;4.35;;
211;SDS011;16228;48.800;9.002;2023-06-22T09:11:56;5.30;;;4.45;;
211;SDS011;16228;48.800;9.002;2023-06-22T09:14:23;8.48;;;4.60;;
211;SDS011;16228;48.800;9.002;2023-06-22T09:16:51;7.07;;;4.68;;
211;SDS011;16228;48.800;9.002;2023-06-22T09:19:18;8.63;;;4.82;;
211;SDS011;16228;48.800;9.002;2023-06-22T09:21:45;8.00;;;4.88;;
211;SDS011;16228;48.800;9.002;2023-06-22T09:24:12;8.48;;;5.38;;
211;SDS011;16228;48.800;9.002;2023-06-22T09:26:40;7.03;;;4.60;;
211;SDS011;16228;48.800;9.002;2023-06-22T09:29:08;7.53;;;4.80;;
211;SDS011;16228;48.800;9.002;2023-06-22T09:31:35;6.85;;;4.35;;
211;SDS011;16228;48.800;9.002;2023-06-22T09:34:02;7.20;;;4.07;;
211;SDS011;16228;48.800;9.002;2023-06-22T09:36:30;7.68;;;4.57;;
211;SDS011;16228;48.800;9.002;2023-06-22T09:38:57;8.00;;;4.68;;
211;SDS011;16228;48.800;9.002;2023-06-22T09:41:24;8.98;;;4.75;;
211;SDS011;16228;48.800;9.002;2023-06-22T09:43:51;6.43;;;4.57;;
211;SDS011;16228;48.800;9.002;2023-06-22T09:46:20;7.22;;;5.07;;
211;SDS011;16228;48.800;9.002;2023-06-22T09:48:50;6.50;;;4.35;;
211;SDS011;16228;48.800;9.002;2023-06-22T09:51:17;8.50;;;4.55;;
211;SDS011;16228;48.800;9.002;2023-06-22T09:53:45;5.53;;;3.92;;
211;SDS011;16228;48.800;9.002;2023-06-22T09:56:12;6.63;;;4.43;;
211;SDS011;16228;48.800;9.002;2023-06-22T09:58:40;6.10;;;4.43;;
211;SDS011;16228;48.800;9.002;2023-06-22T10:01:08;8.75;;;4.93;;
211;SDS011;16228;48.800;9.002;2023-06-22T10:03:37;7.07;;;4.80;;
211;SDS011;16228;48.800;9.002;2023-06-22T10:06:05;7.35;;;4.97;;
211;SDS011;16228;48.800;9.002;2023-06-22T10:08:32;6.25;;;4.43;;
211;SDS011;16228;48.800;9.002;2023-06-22T10:10:59;7.22;;;4.78;;
211;SDS011;16228;48.800;9.002;2023-06-22T10:13:26;7.72;;;5.30;;
211;SDS011;16228;48.800;9.002;2023-06-22T10:15:53;6.90;;;4.53;;
211;SDS011;16228;48.800;9.002;2023-06-22T10:18:21;9.43;;;4.88;;
211;SDS011;16228;48.800;9.002;2023-06-22T10:20:50;6.97;;;4.88;;
211;SDS011;16228;48.800;9.002;2023-06-22T10:23:18;6.68;;;4.38;;
211;SDS011;16228;48.800;9.002;2023-06-22T10:25:45;7.07;;;4.88;;
211;SDS011;16228;48.800;9.002;2023-06-22T10:28:12;7.50;;;4.72;;
211;SDS011;16228;48.800;9.002;2023-06-22T10:30:40;8.77;;;4.50;;
211;SDS011;16228;48.800;9.002;2023-06-22T10:33:07;7.75;;;5.00;;
211;SDS011;16228;48.800;9.002;2023-06-22T10:35:34;8.55;;;4.90;;
211;SDS011;16228;48.800;9.002;2023-06-22T10:38:04;7.55;;;4.72;;
211;SDS011;16228;48.800;9.002;2023-06-22T10:40:31;6.95;;;4.85;;
211;SDS011;16228;48.800;9.002;2023-06-22T10:42:58;6.60;;;4.85;;
211;SDS011;16228;48.800;9.002;2023-06-22T10:45:26;9.88;;;4.78;;
211;SDS011;16228;48.800;9.002;2023-06-22T10:47:53;5.53;;;3.97;;
211;SDS011;16228;48.800;9.002;2023-06-22T10:50:20;6.30;;;4.43;;
211;SDS011;16228;48.800;9.002;2023-06-22T10:52:49;6.93;;;5.25;;
211;SDS011;16228;48.800;9.002;2023-06-22T10:55:18;7.32;;;4.80;;
211;SDS011;16228;48.800;9.002;2023-06-22T10:57:45;6.65;;;5.03;;
211;SDS011;16228;48.800;9.002;2023-06-22T11:00:13;7.72;;;4.80;;
211;SDS011;16228;48.800;9.002;2023-06-22T11:02:41;10.98;;;5.15;;
211;SDS011;16228;48.800;9.002;2023-06-22T11:05:08;7.10;;;5.07;;
211;SDS011;16228;48.800;9.002;2023-06-22T11:07:36;7.82;;;4.75;;
211;SDS011;16228;48.800;9.002;2023-06-22T11:10:05;8.30;;;4.80;;
211;SDS011;16228;48.800;9.002;2023-06-22T11:12:34;6.57;;;4.65;;
211;SDS011;16228;48.800;9.002;2023-06-22T11:15:01;5.25;;;4.72;;
211;SDS011;16228;48.800;9.002;2023-06-22T11:17:29;8.07;;;5.40;;
211;SDS011;16228;48.800;9.002;2023-06-22T11:19:56;6.13;;;4.35;;
211;SDS011;16228;48.800;9.002;2023-06-22T11:22:25;8.40;;;4.88;;
211;SDS011;16228;48.800;9.002;2023-06-22T11:24:52;8.07;;;5.38;;
211;SDS011;16228;48.800;9.002;2023-06-22T11:27:19;8.48;;;5.28;;
211;SDS011;16228;48.800;9.002;2023-06-22T11:29:48;7.53;;;4.65;;
211;SDS011;16228;48.800;9.002;2023-06-22T11:32:15;6.40;;;5.10;;
211;SDS011;16228;48.800;9.002;2023-06-22T11:34:42;6.18;;;4.90;;
211;SDS011;16228;48.800;9.002;2023-06-22T11:37:10;9.93;;;5.70;;
211;SDS011;16228;48.800;9.002;2023-06-22T11:39:37;9.80;;;6.28;;
211;SDS011;16228;48.800;9.002;2023-06-22T11:42:04;6.22;;;4.85;;
211;SDS011;16228;48.800;9.002;2023-06-22T11:44:32;7.10;;;5.65;;
211;SDS011;16228;48.800;9.002;2023-06-22T11:47:00;7.25;;;5.35;;
211;SDS011;16228;48.800;9.002;2023-06-22T11:49:29;8.02;;;5.85;;
211;SDS011;16228;48.800;9.002;2023-06-22T11:51:57;5.93;;;4.45;;
211;SDS011;16228;48.800;9.002;2023-06-22T11:54:24;7.80;;;4.72;;
211;SDS011;16228;48.800;9.002;2023-06-22T11:56:51;7.53;;;5.47;;
211;SDS011;16228;48.800;9.002;2023-06-22T11:59:18;8.40;;;5.50;;
211;SDS011;16228;48.800;9.002;2023-06-22T12:01:47;8.30;;;5.75;;
211;SDS011;16228;48.800;9.002;2023-06-22T12:04:17;10.67;;;5.70;;
211;SDS011;16228;48.800;9.002;2023-06-22T12:06:44;9.40;;;5.40;;
211;SDS011;16228;48.800;9.002;2023-06-22T12:09:12;8.20;;;5.67;;
211;SDS011;16228;48.800;9.002;2023-06-22T12:11:40;8.33;;;5.47;;
211;SDS011;16228;48.800;9.002;2023-06-22T12:14:07;9.83;;;5.27;;
211;SDS011;16228;48.800;9.002;2023-06-22T12:16:34;8.10;;;5.37;;
211;SDS011;16228;48.800;9.002;2023-06-22T12:19:01;8.52;;;5.35;;
211;SDS011;16228;48.800;9.002;2023-06-22T12:21:30;8.23;;;5.47;;
211;SDS011;16228;48.800;9.002;2023-06-22T12:23:57;7.68;;;4.95;;
211;SDS011;16228;48.800;9.002;2023-06-22T12:26:24;8.13;;;5.22;;
211;SDS011;16228;48.800;9.002;2023-06-22T12:28:51;10.82;;;6.00;;
211;SDS011;16228;48.800;9.002;2023-06-22T12:31:19;11.65;;;6.47;;
211;SDS011;16228;48.800;9.002;2023-06-22T12:33:46;9.20;;;5.68;;
211;SDS011;16228;48.800;9.002;2023-06-22T12:36:13;7.55;;;5.53;;
211;SDS011;16228;48.800;9.002;2023-06-22T12:38:43;10.50;;;5.35;;
211;SDS011;16228;48.800;9.002;2023-06-22T12:41:10;7.78;;;5.60;;
211;SDS011;16228;48.800;9.002;2023-06-22T12:43:37;9.75;;;6.15;;
211;SDS011;16228;48.800;9.002;2023-06-22T12:46:04;9.55;;;5.55;;
211;SDS011;16228;48.800;9.002;2023-06-22T12:48:31;9.23;;;5.90;;
211;SDS011;16228;48.800;9.002;2023-06-22T12:50:59;7.82;;;4.43;;
211;SDS011;16228;48.800;9.002;2023-06-22T12:53:26;9.18;;;5.68;;
211;SDS011;16228;48.800;9.002;2023-06-22T12:55:55;7.95;;;5.45;;
211;SDS011;16228;48.800;9.002;2023-06-22T12:58:22;9.48;;;5.72;;
211;SDS011;16228;48.800;9.002;2023-06-22T13:00:49;7.37;;;5.67;;
211;SDS011;16228;48.800;9.002;2023-06-22T13:03:16;7.43;;;5.50;;
211;SDS011;16228;48.800;9.002;2023-06-22T13:05:44;11.33;;;5.53;;
211;SDS011;16228;48.800;9.002;2023-06-22T13:08:11;8.97;;;5.30;;
211;SDS011;16228;48.800;9.002;2023-06-22T13:10:38;11.17;;;5.90;;
211;SDS011;16228;48.800;9.002;2023-06-22T13:13:07;10.10;;;6.73;;
211;SDS011;16228;48.800;9.002;2023-06-22T13:15:34;8.70;;;5.63;;
211;SDS011;16228;48.800;9.002;2023-06-22T13:18:01;9.33;;;5.80;;
211;SDS011;16228;48.800;9.002;2023-06-22T13:20:29;10.33;;;5.17;;
211;SDS011;16228;48.800;9.002;2023-06-22T13:22:59;9.30;;;6.47;;
211;SDS011;16228;48.800;9.002;2023-06-22T13:25:27;10.70;;;6.13;;
211;SDS011;16228;48.800;9.002;2023-06-22T13:27:54;8.43;;;5.43;;
211;SDS011;16228;48.800;9.002;2023-06-22T13:30:23;8.57;;;6.13;;
211;SDS011;16228;48.800;9.002;2023-06-22T13:32:50;7.70;;;5.60;;
211;SDS011;16228;48.800;9.002;2023-06-22T13:35:17;10.67;;;6.00;;
211;SDS011;16228;48.800;9.002;2023-06-22T13:37:44;10.63;;;6.07;;
211;SDS011;16228;48.800;9.002;2023-06-22T13:40:12;8.57;;;5.60;;
211;SDS011;16228;48.800;9.002;2023-06-22T13:42:39;8.43;;;5.57;;
211;SDS011;16228;48.800;9.002;2023-06-22T13:45:07;14.38;;;5.68;;
211;SDS011;16228;48.800;9.002;2023-06-22T13:47:36;8.17;;;5.63;;
211;SDS011;16228;48.800;9.002;2023-06-22T13:50:04;8.27;;;5.28;;
211;SDS011;16228;48.800;9.002;2023-06-22T13:52:32;8.35;;;5.50;;
211;SDS011;16228;48.800;9.002;2023-06-22T13:54:59;9.60;;;5.97;;
211;SDS011;16228;48.800;9.002;2023-06-22T13:57:26;5.67;;;5.17;;
211;SDS011;16228;48.800;9.002;2023-06-22T13:59:53;6.67;;;5.93;;
211;SDS011;16228;48.800;9.002;2023-06-22T14:02:20;8.97;;;5.37;;
211;SDS011;16228;48.800;9.002;2023-06-22T14:04:49;7.57;;;5.40;;
211;SDS011;16228;48.800;9.002;2023-06-22T14:07:16;10.00;;;5.80;;
211;SDS011;16228;48.800;9.002;2023-06-22T14:09:44;7.85;;;5.22;;
211;SDS011;16228;48.800;9.002;2023-06-22T14:12:12;9.80;;;5.03;;
211;SDS011;16228;48.800;9.002;2023-06-22T14:14:39;7.43;;;5.37;;
211;SDS011;16228;48.800;9.002;2023-06-22T14:17:06;11.20;;;5.00;;
211;SDS011;16228;48.800;9.002;2023-06-22T14:19:33;10.55;;;5.10;;
211;SDS011;16228;48.800;9.002;2023-06-22T14:22:02;8.00;;;4.93;;
211;SDS011;16228;48.800;9.002;2023-06-22T14:24:30;10.00;;;5.30;;
211;SDS011;16228;48.800;9.002;2023-06-22T14:26:57;9.95;;;4.78;;
211;SDS011;16228;48.800;9.002;2023-06-22T14:29:27;9.13;;;5.45;;
211;SDS011;16228;48.800;9.002;2023-06-22T14:31:54;8.43;;;4.70;;
211;SDS011;16228;48.800;9.002;2023-06-22T14:34:22;9.02;;;4.78;;
211;SDS011;16228;48.800;9.002;2023-06-22T14:36:49;9.75;;;4.60;;
211;SDS011;16228;48.800;9.002;2023-06-22T14:39:17;10.27;;;4.30;;
211;SDS011;16228;48.800;9.002;2023-06-22T14:41:46;9.80;;;4.97;;
211;SDS011;16228;48.800;9.002;2023-06-22T14:44:13;9.32;;;3.30;;
211;SDS011;16228;48.800;9.002;2023-06-22T14:46:41;8.88;;;3.50;;
211;SDS011;16228;48.800;9.002;2023-06-22T14:49:08;7.03;;;2.83;;
211;SDS011;16228;48.800;9.002;2023-06-22T14:51:35;10.00;;;3.50;;
211;SDS011;16228;48.800;9.002;2023-06-22T14:54:02;10.17;;;3.90;;
211;SDS011;16228;48.800;9.002;2023-06-22T14:56:31;14.77;;;3.43;;
211;SDS011;16228;48.800;9.002;2023-06-22T14:58:58;8.23;;;3.33;;
211;SDS011;16228;48.800;9.002;2023-06-22T15:01:25;8.40;;;3.83;;
211;SDS011;16228;48.800;9.002;2023-06-22T15:03:52;10.50;;;3.30;;
211;SDS011;16228;48.800;9.002;2023-06-22T15:06:20;13.27;;;3.67;;
211;SDS011;16228;48.800;9.002;2023-06-22T15:08:48;7.85;;;3.45;;
211;SDS011;16228;48.800;9.002;2023-06-22T15:11:15;7.95;;;3.38;;